パース の空港の天気 - METARとTAF

パース空港 ( YPPH / PER ) - オーストラリア 西オーストラリア州パース
飛行場実況気象(Metar)
観測時間05/30 00:00 AWST (05/29 16:00 UTC)
風向・風速西南西 5m/s
視程10km以上
天気現象周辺でしゅう雨
少しの雲 雲底高度 1070m
全天の8割程度の雲 雲底高度 2130m
気温13℃
湿度77%
気圧1016hPa
METARYPPH 291600Z 24010KT 9999 VCSH FEW035 BKN070 13/09 Q1016 NOSIG
過去の天気等 Google飛行場航空写真 Wunderground天気予報

過去48時間のMETAR

飛行場予報(TAF)
発表時間: 5/29 19:15 AWST (5/29 11:15 UTC)
予報対象時間: 29日20時 AWST ~ 31日2時 AWST
風向・風速西南西 7m/s
視程10km以上
天気現象弱いしゅう雨
全天の8割程度の雲 雲底高度 1070m
30日2時 AWST から
風向・風速西 4m/s
視程10km以上
天気現象弱いしゅう雨
全天の8割程度の雲 雲底高度 1220m
30日22時 AWST から
風向・風速西 4m/s
視程10km以上
天気現象弱いしゅう雨
全天の8割程度の雲 雲底高度 910m
TAF YPPH 291115Z 2912/3018 25014KT 9999 -SHRA BKN035
FM291800 26008KT 9999 -SHRA BKN040
FM301400 27008KT 9999 -SHRA BKN030 INTER 2912/2915 24018G32KT 4000 SHRA SCT015